Aérodrome :
LOGIN :

S'inscrire | Disclaimer

   EN    FR    IT 

 










Légende :    VFR   VFR Marginal   IFR   IFR Intensif   IFR Très Intensif
Visi : 
Plafond : 
>= 8 km
>= 3000ft
5 à 8 km
1000 à 3000 ft
1500m à 5 km
500 à 1000 ft
800 à 1500m
200 à 500 ft
< 800m
< 200 ft
Symboles :   Orages  Brouillard  Fortes neiges  Fortes précipitations  Vent > 20 kt
SIGMETs :   Divers  Orages  Givrage  Turbulence  Onde Orograph.  Cendres Volcan.






- Altitude de l'aérodrome : 102 ft
- Code IATA : EXT


EGTE - Exeter

DERNIER METAR :
  • 160920Z 00000KT 9999 FEW025 03/03 Q1000

METARs EXPIRÉS :
  • 160850Z 00000KT 9999 FEW025 02/02 Q1000
  • 160820Z 31003KT 9999 FEW010 02/01 Q0999
  • 160750Z 00000KT 9999 FEW010 04/03 Q0999
  • 160720Z VRB02KT CAVOK 04/03 Q0999
  • 160650Z 10003KT CAVOK 03/02 Q0999

TAF TAF EGTE
Valide du 16 à 09h jusqu'au 16 à 18h UTC


160800Z 1609/1618 18004KT 9999 FEW035



MET'MAP, la Météo Aéronautique d'un coup d'oeil ! - Copyright ORBIFLY Décembre 2007 - Disclaimer

ORBIFLY MET'MAP TEAM :

Programmation & Développement : Alexandra Zaïnal
Sur une idée originale de : Baudouin d'Aumeries
Assistance à la programmation : Marc-Olivier Méhu
Soutien technique & logistique : Manuel Goepfert

Contact : metmap@orbifly.com




SOURCES & CREDITS :

   NOAA